createdAt,value
2022-08-01T00:02:26.154Z,4.20
2022-08-01T00:05:29.513Z,4.40
2022-08-01T00:08:33.008Z,4.50
2022-08-01T00:11:37.671Z,4.50
2022-08-01T00:14:40.810Z,4.80
2022-08-01T00:17:45.023Z,4.57
2022-08-01T00:20:48.483Z,4.73
2022-08-01T00:23:51.635Z,4.90
2022-08-01T00:26:56.187Z,4.53
2022-08-01T00:30:11.559Z,4.50
2022-08-01T00:33:17.401Z,5.13
2022-08-01T00:36:20.542Z,4.80
2022-08-01T00:39:23.685Z,4.47
2022-08-01T00:42:28.232Z,4.50
2022-08-01T00:45:31.522Z,4.70
2022-08-01T00:48:34.650Z,4.70
2022-08-01T00:51:37.803Z,4.37
2022-08-01T00:54:42.094Z,4.37
2022-08-01T00:58:02.622Z,5.00
2022-08-01T01:01:08.823Z,4.07
2022-08-01T01:04:11.974Z,4.27
2022-08-01T01:07:20.605Z,4.70
2022-08-01T01:10:27.924Z,4.40
2022-08-01T01:13:50.322Z,4.60
2022-08-01T01:16:55.901Z,4.80
2022-08-01T01:20:01.732Z,4.40
2022-08-01T01:23:16.814Z,4.57
2022-08-01T01:26:30.795Z,4.03
2022-08-01T01:29:58.807Z,4.50
2022-08-01T01:33:08.017Z,4.90
2022-08-01T01:36:14.674Z,4.80
2022-08-01T01:39:19.049Z,4.50
2022-08-01T01:42:24.583Z,4.90
2022-08-01T01:45:30.514Z,5.20
2022-08-01T01:48:35.854Z,4.93
2022-08-01T01:51:40.570Z,4.60
2022-08-01T01:54:49.176Z,4.70
2022-08-01T01:57:54.252Z,5.27
2022-08-01T02:01:02.861Z,4.00
2022-08-01T02:04:07.931Z,5.37
2022-08-01T02:07:12.265Z,4.50
2022-08-01T02:10:17.820Z,4.47
2022-08-01T02:13:23.022Z,5.10
2022-08-01T02:16:31.320Z,4.77
2022-08-01T02:19:38.586Z,5.20
2022-08-01T02:22:44.800Z,4.50
2022-08-01T02:26:09.514Z,5.50
2022-08-01T02:29:19.097Z,4.20
2022-08-01T02:32:38.554Z,4.57
2022-08-01T02:36:32.032Z,4.60
2022-08-01T02:39:11.373Z,4.30
2022-08-01T02:42:16.538Z,4.93
2022-08-01T02:45:20.992Z,5.20
2022-08-01T02:48:28.570Z,4.57
2022-08-01T02:51:33.223Z,4.37
2022-08-01T02:54:37.767Z,5.27
2022-08-01T02:57:52.049Z,5.10
2022-08-01T03:00:56.386Z,4.50
2022-08-01T03:04:01.733Z,4.63
2022-08-01T03:07:07.155Z,4.67
2022-08-01T03:10:11.928Z,4.60
2022-08-01T03:13:16.630Z,4.03
2022-08-01T03:16:20.737Z,4.60
2022-08-01T03:19:28.552Z,4.57
2022-08-01T03:22:32.436Z,4.50
2022-08-01T03:25:38.629Z,4.10
2022-08-01T03:28:43.743Z,4.00
2022-08-01T03:31:48.401Z,4.20
2022-08-01T03:34:53.308Z,4.20
2022-08-01T03:38:15.783Z,3.87
2022-08-01T03:41:23.303Z,4.30
2022-08-01T03:44:30.440Z,4.50
2022-08-01T03:47:43.624Z,4.47
2022-08-01T03:50:52.813Z,4.60
2022-08-01T03:53:57.475Z,5.40
2022-08-01T03:57:01.971Z,4.23
2022-08-01T04:00:09.728Z,4.70
2022-08-01T04:03:14.304Z,4.90
2022-08-01T04:06:18.979Z,4.60
2022-08-01T04:09:22.840Z,5.03
2022-08-01T04:12:26.154Z,4.30
2022-08-01T04:15:29.416Z,4.47
2022-08-01T04:18:33.149Z,4.23
2022-08-01T04:21:38.679Z,4.77
2022-08-01T04:24:43.326Z,4.20
2022-08-01T04:27:51.224Z,3.70
2022-08-01T04:31:01.823Z,3.77
2022-08-01T04:34:07.819Z,4.63
2022-08-01T04:37:14.147Z,4.13
2022-08-01T04:40:18.209Z,4.90
2022-08-01T04:43:21.666Z,4.20
2022-08-01T04:46:25.257Z,4.80
2022-08-01T04:49:28.782Z,4.67
2022-08-01T04:52:37.055Z,4.60
2022-08-01T04:55:40.150Z,5.53
2022-08-01T04:58:43.488Z,4.90
2022-08-01T05:01:51.235Z,5.00
2022-08-01T05:04:56.034Z,5.03
2022-08-01T05:08:01.286Z,4.83
2022-08-01T05:11:04.474Z,5.77
2022-08-01T05:14:08.140Z,5.27
2022-08-01T05:17:12.229Z,5.90
2022-08-01T05:20:15.422Z,4.97
2022-08-01T05:23:42.634Z,5.40
2022-08-01T05:26:43.376Z,5.50
2022-08-01T05:29:47.579Z,5.00
2022-08-01T05:32:50.692Z,5.27
2022-08-01T05:35:53.822Z,5.10
2022-08-01T05:38:58.445Z,4.90
2022-08-01T05:42:01.573Z,5.33
2022-08-01T05:45:05.295Z,5.17
2022-08-01T05:48:08.579Z,5.70
2022-08-01T05:51:11.675Z,5.83
2022-08-01T05:54:16.168Z,5.47
2022-08-01T05:57:19.260Z,5.80
2022-08-01T06:00:22.503Z,5.00
2022-08-01T06:03:26.131Z,5.00
2022-08-01T06:06:29.246Z,5.40
2022-08-01T06:09:33.759Z,5.83
2022-08-01T06:12:37.594Z,5.60
2022-08-01T06:15:40.935Z,6.50
2022-08-01T06:18:44.219Z,5.73
2022-08-01T06:21:47.366Z,4.77
2022-08-01T06:24:51.850Z,5.43
2022-08-01T06:27:55.052Z,5.87
2022-08-01T06:30:59.606Z,5.87
2022-08-01T06:34:02.734Z,6.13
2022-08-01T06:37:06.929Z,5.57
2022-08-01T06:40:17.175Z,6.03
2022-08-01T06:43:20.840Z,5.80
2022-08-01T06:46:23.948Z,6.00
2022-08-01T06:49:33.648Z,6.03
2022-08-01T06:52:37.064Z,5.90
2022-08-01T06:55:41.599Z,5.97
2022-08-01T06:58:44.781Z,5.73
2022-08-01T07:01:47.920Z,5.70
2022-08-01T07:04:51.056Z,6.30
2022-08-01T07:07:54.324Z,6.47
2022-08-01T07:11:00.622Z,5.83
2022-08-01T07:14:04.249Z,6.00
2022-08-01T07:17:07.409Z,5.57
2022-08-01T07:20:14.014Z,6.23
2022-08-01T07:23:21.870Z,5.80
2022-08-01T07:26:27.746Z,5.17
2022-08-01T07:29:30.915Z,5.40
2022-08-01T07:32:35.876Z,6.57
2022-08-01T07:35:39.291Z,5.33
2022-08-01T07:38:42.451Z,5.43
2022-08-01T07:42:06.828Z,6.00
2022-08-01T07:45:11.804Z,7.07
2022-08-01T07:48:14.936Z,7.10
2022-08-01T07:51:18.048Z,5.03
2022-08-01T07:54:21.163Z,5.80
2022-08-01T07:57:38.765Z,5.47
2022-08-01T08:00:41.943Z,5.03
2022-08-01T08:03:45.020Z,5.60
2022-08-01T08:06:48.679Z,6.45
2022-08-01T08:09:51.824Z,5.30
2022-08-01T08:12:56.341Z,4.70
2022-08-01T08:16:00.763Z,6.07
2022-08-01T08:19:03.899Z,5.38
2022-08-01T08:22:08.265Z,5.80
2022-08-01T08:25:12.631Z,6.07
2022-08-01T08:28:17.134Z,6.10
2022-08-01T08:31:25.285Z,6.27
2022-08-01T08:34:43.879Z,6.20
2022-08-01T08:37:47.531Z,6.30
2022-08-01T08:40:52.561Z,5.83
2022-08-01T08:43:58.524Z,5.90
2022-08-01T08:47:06.216Z,6.77
2022-08-01T08:50:12.636Z,6.03
2022-08-01T08:53:19.074Z,5.80
2022-08-01T08:56:23.320Z,6.18
2022-08-01T08:59:29.489Z,5.75
2022-08-01T09:02:32.724Z,4.40
2022-08-01T09:05:38.658Z,5.28
2022-08-01T09:08:43.065Z,4.95
2022-08-01T09:11:57.079Z,5.88
2022-08-01T09:15:10.914Z,5.47
2022-08-01T09:18:31.729Z,5.60
2022-08-01T09:21:34.866Z,5.05
2022-08-01T09:24:38.168Z,4.50
2022-08-01T09:27:44.260Z,5.32
2022-08-01T09:30:50.934Z,4.90
2022-08-01T09:33:56.909Z,4.57
2022-08-01T09:37:03.438Z,4.65
2022-08-01T09:40:07.844Z,4.43
2022-08-01T09:43:15.086Z,4.32
2022-08-01T09:46:20.616Z,4.50
2022-08-01T09:49:49.627Z,4.65
2022-08-01T09:52:57.167Z,4.30
2022-08-01T09:56:11.935Z,4.90
2022-08-01T09:59:16.846Z,3.83
2022-08-01T10:02:32.433Z,4.45
2022-08-01T10:05:37.852Z,4.30
2022-08-01T10:08:48.818Z,4.57
2022-08-01T10:11:53.296Z,3.92
2022-08-01T10:15:00.644Z,4.50
2022-08-01T10:18:21.437Z,4.05
2022-08-01T10:21:56.555Z,4.78
2022-08-01T10:24:56.935Z,3.92
2022-08-01T10:28:03.609Z,4.20
2022-08-01T10:31:12.688Z,3.45
2022-08-01T10:34:20.851Z,4.03
2022-08-01T10:37:27.252Z,3.65
2022-08-01T10:40:31.437Z,4.20
2022-08-01T10:43:35.368Z,4.40
2022-08-01T10:46:41.155Z,4.05
2022-08-01T10:49:57.906Z,4.25
2022-08-01T10:53:16.059Z,4.57
2022-08-01T10:56:41.828Z,4.05
2022-08-01T11:00:01.214Z,3.63
2022-08-01T11:03:05.800Z,3.30
2022-08-01T11:06:19.213Z,3.85
2022-08-01T11:09:37.472Z,4.18
2022-08-01T11:12:43.897Z,3.38
2022-08-01T11:15:49.924Z,3.83
2022-08-01T11:18:53.992Z,4.45
2022-08-01T11:22:04.969Z,4.15
2022-08-01T11:25:08.360Z,3.75
2022-08-01T11:28:30.037Z,3.28
2022-08-01T11:31:38.444Z,2.45
2022-08-01T11:34:55.804Z,2.70
2022-08-01T11:38:29.002Z,2.70
2022-08-01T11:41:38.101Z,2.40
2022-08-01T11:44:51.972Z,2.38
2022-08-01T11:47:55.305Z,2.35
2022-08-01T11:51:02.044Z,2.97
2022-08-01T11:54:07.185Z,3.10
2022-08-01T11:57:11.742Z,2.65
2022-08-01T12:00:17.859Z,2.67
2022-08-01T12:03:33.270Z,3.10
2022-08-01T12:06:37.218Z,2.45
2022-08-01T12:09:41.720Z,2.90
2022-08-01T12:12:46.522Z,1.77
2022-08-01T12:15:56.181Z,1.42
2022-08-01T12:18:59.931Z,2.08
2022-08-01T12:22:11.237Z,1.92
2022-08-01T12:25:17.116Z,2.00
2022-08-01T12:28:20.243Z,1.60
2022-08-01T12:31:33.744Z,1.92
2022-08-01T12:34:36.865Z,1.92
2022-08-01T12:37:41.139Z,1.70
2022-08-01T12:40:47.585Z,1.73
2022-08-01T12:43:54.887Z,1.77
2022-08-01T12:46:58.752Z,1.80
2022-08-01T12:50:01.958Z,2.35
2022-08-01T12:53:05.192Z,1.33
2022-08-01T12:56:12.615Z,2.35
2022-08-01T12:59:23.423Z,2.17
2022-08-01T13:02:34.984Z,1.88
2022-08-01T13:05:47.082Z,1.85
2022-08-01T13:08:50.198Z,1.85
2022-08-01T13:12:04.181Z,1.98
2022-08-01T13:15:19.902Z,1.65
2022-08-01T13:18:28.256Z,1.63
2022-08-01T13:21:52.793Z,1.45
2022-08-01T13:25:11.996Z,1.83
2022-08-01T13:28:21.449Z,1.90
2022-08-01T13:31:34.884Z,2.08
2022-08-01T13:34:38.357Z,1.95
2022-08-01T13:37:43.044Z,2.72
2022-08-01T13:40:46.300Z,1.83
2022-08-01T13:43:59.022Z,2.50
2022-08-01T13:47:15.428Z,1.42
2022-08-01T13:50:19.143Z,1.80
2022-08-01T13:53:22.258Z,1.80
2022-08-01T13:56:26.060Z,1.75
2022-08-01T13:59:30.645Z,1.50
2022-08-01T14:02:33.797Z,2.20
2022-08-01T14:05:37.121Z,1.98
2022-08-01T14:08:40.390Z,2.15
2022-08-01T14:11:49.312Z,1.65
2022-08-01T14:14:53.780Z,1.63
2022-08-01T14:17:56.918Z,1.90
2022-08-01T14:21:05.275Z,1.70
2022-08-01T14:24:10.666Z,1.60
2022-08-01T14:27:13.798Z,1.40
2022-08-01T14:30:18.271Z,1.58
2022-08-01T14:33:21.388Z,1.60
2022-08-01T14:36:29.636Z,1.52
2022-08-01T14:39:34.547Z,1.63
2022-08-01T14:42:38.375Z,1.30
2022-08-01T14:45:43.126Z,1.90
2022-08-01T14:48:46.277Z,1.45
2022-08-01T14:51:49.677Z,1.55
2022-08-01T14:54:52.798Z,1.95
2022-08-01T14:57:56.269Z,1.77
2022-08-01T15:01:01.661Z,2.10
2022-08-01T15:04:04.982Z,2.17
2022-08-01T15:07:13.371Z,1.67
2022-08-01T15:10:17.200Z,2.08
2022-08-01T15:13:20.382Z,1.75
2022-08-01T15:16:25.460Z,2.25
2022-08-01T15:19:28.946Z,2.70
2022-08-01T15:22:32.266Z,2.25
2022-08-01T15:25:41.223Z,2.78
2022-08-01T15:28:45.499Z,2.58
2022-08-01T15:31:50.482Z,2.30
2022-08-01T15:34:53.925Z,2.70
2022-08-01T15:37:58.279Z,2.80
2022-08-01T15:41:01.423Z,3.20
2022-08-01T15:44:05.061Z,3.15
2022-08-01T15:47:10.830Z,3.10
2022-08-01T15:50:13.978Z,2.80
2022-08-01T15:53:17.054Z,3.00
2022-08-01T15:56:20.301Z,2.70
2022-08-01T15:59:23.711Z,2.87
2022-08-01T16:02:28.337Z,3.07
2022-08-01T16:05:31.524Z,3.87
2022-08-01T16:08:34.763Z,2.97
2022-08-01T16:11:42.934Z,3.40
2022-08-01T16:14:54.287Z,3.05
2022-08-01T16:18:02.229Z,3.40
2022-08-01T16:21:07.847Z,3.07
2022-08-01T16:24:11.180Z,3.60
2022-08-01T16:27:15.218Z,3.22
2022-08-01T16:30:18.343Z,2.70
2022-08-01T16:33:45.743Z,3.17
2022-08-01T16:36:46.409Z,2.77
2022-08-01T16:39:49.551Z,2.67
2022-08-01T16:42:52.682Z,5.90
2022-08-01T16:45:56.036Z,3.07
2022-08-01T16:49:00.632Z,3.10
2022-08-01T16:52:03.930Z,3.20
2022-08-01T16:55:08.122Z,3.50
2022-08-01T16:58:12.072Z,3.27
2022-08-01T17:02:00.298Z,3.67
2022-08-01T17:04:39.814Z,3.57
2022-08-01T17:07:42.957Z,3.17
2022-08-01T17:10:46.261Z,3.37
2022-08-01T17:13:49.418Z,3.57
2022-08-01T17:16:52.537Z,3.53
2022-08-01T17:19:57.131Z,3.10
2022-08-01T17:23:00.223Z,3.80
2022-08-01T17:26:03.732Z,3.60
2022-08-01T17:29:06.819Z,4.20
2022-08-01T17:32:10.918Z,3.50
2022-08-01T17:35:15.616Z,3.90
2022-08-01T17:38:19.610Z,3.90
2022-08-01T17:41:22.885Z,3.77
2022-08-01T17:44:27.481Z,3.60
2022-08-01T17:47:49.790Z,3.57
2022-08-01T17:50:55.575Z,3.50
2022-08-01T17:53:59.040Z,3.67
2022-08-01T17:57:02.641Z,3.20
2022-08-01T18:00:12.790Z,3.43
2022-08-01T18:03:22.815Z,3.23
2022-08-01T18:06:35.993Z,4.50
2022-08-01T18:09:43.999Z,3.53
2022-08-01T18:12:49.020Z,3.73
2022-08-01T18:15:52.236Z,3.93
2022-08-01T18:18:56.294Z,4.33
2022-08-01T18:22:00.818Z,4.27
2022-08-01T18:25:08.868Z,3.87
2022-08-01T18:28:22.506Z,3.70
2022-08-01T18:31:35.824Z,4.27
2022-08-01T18:34:39.026Z,4.63
2022-08-01T18:37:54.442Z,5.30
2022-08-01T18:40:58.531Z,4.90
2022-08-01T18:44:05.538Z,4.80
2022-08-01T18:47:11.830Z,4.33
2022-08-01T18:50:15.005Z,4.20
2022-08-01T18:53:20.863Z,4.10
2022-08-01T18:56:24.000Z,4.30
2022-08-01T18:59:27.294Z,4.07
2022-08-01T19:02:30.414Z,4.50
2022-08-01T19:05:34.985Z,4.20
2022-08-01T19:08:40.555Z,4.10
2022-08-01T19:11:43.639Z,4.40
2022-08-01T19:14:46.823Z,4.87
2022-08-01T19:17:50.010Z,3.90
2022-08-01T19:20:53.403Z,3.63
2022-08-01T19:24:15.245Z,4.20
2022-08-01T19:27:18.408Z,4.07
2022-08-01T19:30:21.542Z,4.60
2022-08-01T19:33:24.653Z,4.00
2022-08-01T19:36:28.532Z,4.33
2022-08-01T19:39:33.038Z,4.30
2022-08-01T19:42:40.972Z,4.20
2022-08-01T19:45:46.092Z,4.00
2022-08-01T19:48:54.029Z,5.10
2022-08-01T19:52:02.406Z,4.50
2022-08-01T19:55:09.030Z,4.50
2022-08-01T19:58:29.081Z,4.90
2022-08-01T20:01:32.384Z,4.20
2022-08-01T20:04:37.335Z,4.43
2022-08-01T20:07:41.219Z,4.70
2022-08-01T20:10:48.049Z,4.53
2022-08-01T20:13:52.450Z,4.40
2022-08-01T20:16:57.452Z,4.63
2022-08-01T20:20:00.880Z,4.90
2022-08-01T20:23:05.697Z,4.53
2022-08-01T20:26:11.131Z,5.40
2022-08-01T20:29:15.715Z,4.73
2022-08-01T20:32:21.061Z,5.20
2022-08-01T20:35:51.866Z,5.20
2022-08-01T20:38:49.304Z,4.60
2022-08-01T20:41:59.586Z,4.80
2022-08-01T20:45:05.113Z,4.20
2022-08-01T20:48:12.280Z,4.30
2022-08-01T20:51:16.395Z,5.17
2022-08-01T20:54:19.777Z,4.50
2022-08-01T20:57:28.634Z,4.43
2022-08-01T21:00:32.588Z,4.40
2022-08-01T21:03:42.350Z,4.57
2022-08-01T21:06:55.893Z,4.57
2022-08-01T21:10:06.265Z,4.57
2022-08-01T21:13:20.523Z,5.20
2022-08-01T21:16:30.116Z,5.03
2022-08-01T21:19:35.553Z,5.13
2022-08-01T21:22:42.946Z,4.40
2022-08-01T21:25:47.688Z,4.80
2022-08-01T21:28:54.559Z,4.83
2022-08-01T21:32:12.539Z,4.87
2022-08-01T21:35:18.611Z,4.90
2022-08-01T21:38:22.512Z,4.80
2022-08-01T21:41:56.179Z,4.80
2022-08-01T21:44:51.431Z,5.20
2022-08-01T21:47:55.504Z,4.90
2022-08-01T21:50:59.976Z,4.40
2022-08-01T21:54:10.444Z,4.97
2022-08-01T21:57:23.655Z,4.67
2022-08-01T22:00:28.802Z,4.73
2022-08-01T22:03:37.475Z,4.63
2022-08-01T22:06:45.644Z,5.00
2022-08-01T22:09:51.941Z,5.03
2022-08-01T22:12:57.178Z,5.10
2022-08-01T22:16:07.523Z,4.80
2022-08-01T22:19:32.560Z,4.40
2022-08-01T22:22:50.831Z,4.80
2022-08-01T22:26:04.076Z,4.87
2022-08-01T22:29:12.777Z,4.37
2022-08-01T22:32:19.912Z,4.80
2022-08-01T22:35:25.770Z,5.30
2022-08-01T22:38:33.100Z,4.83
2022-08-01T22:42:01.681Z,5.23
2022-08-01T22:45:10.026Z,4.57
2022-08-01T22:48:26.238Z,5.00
2022-08-01T22:51:43.676Z,4.73
2022-08-01T22:55:23.256Z,5.00
2022-08-01T22:59:00.342Z,4.93
2022-08-01T23:02:06.436Z,4.73
2022-08-01T23:05:29.466Z,5.03
2022-08-01T23:08:34.956Z,4.27
2022-08-01T23:11:41.516Z,6.50
2022-08-01T23:14:47.775Z,5.13
2022-08-01T23:17:53.728Z,4.97
2022-08-01T23:21:01.314Z,5.00
2022-08-01T23:24:08.936Z,5.23
2022-08-01T23:27:51.884Z,4.53
2022-08-01T23:30:52.555Z,5.33
2022-08-01T23:33:57.977Z,4.50
2022-08-01T23:37:07.038Z,4.43
2022-08-01T23:40:13.089Z,5.40
2022-08-01T23:43:17.494Z,5.00
2022-08-01T23:46:20.997Z,4.93
2022-08-01T23:49:24.187Z,4.80
2022-08-01T23:52:32.244Z,5.50
2022-08-01T23:55:37.763Z,4.77
2022-08-01T23:58:41.342Z,5.93
